createdAt,value
2023-02-08T00:00:13.563Z,100346.86
2023-02-08T00:03:02.748Z,100346.46
2023-02-08T00:05:32.558Z,100346.41
2023-02-08T00:08:01.548Z,100345.67
2023-02-08T00:10:30.459Z,100339.95
2023-02-08T00:12:59.999Z,100341.41
2023-02-08T00:15:30.083Z,100338.89
2023-02-08T00:17:59.048Z,100339.74
2023-02-08T00:20:28.373Z,100344.66
2023-02-08T00:22:57.279Z,100348.24
2023-02-08T00:25:26.142Z,100347.34
2023-02-08T00:27:54.819Z,100345.21
2023-02-08T00:30:24.577Z,100346.40
2023-02-08T00:32:53.611Z,100350.89
2023-02-08T00:35:23.646Z,100353.86
2023-02-08T00:37:52.723Z,100356.34
2023-02-08T00:40:22.739Z,100355.55
2023-02-08T00:42:51.836Z,100355.48
2023-02-08T00:45:21.792Z,100359.07
2023-02-08T00:47:50.632Z,100361.57
2023-02-08T00:50:19.514Z,100360.85
2023-02-08T00:52:49.594Z,100359.89
2023-02-08T00:55:18.662Z,100361.40
2023-02-08T00:57:47.855Z,100368.58
2023-02-08T01:00:16.869Z,100368.46
2023-02-08T01:02:46.904Z,100362.79
2023-02-08T01:05:17.135Z,100360.90
2023-02-08T01:07:46.484Z,100360.11
2023-02-08T01:10:15.849Z,100356.45
2023-02-08T01:12:44.850Z,100354.42
2023-02-08T01:15:13.981Z,100355.51
2023-02-08T01:17:42.781Z,100356.74
2023-02-08T01:20:12.274Z,100358.30
2023-02-08T01:22:40.936Z,100354.95
2023-02-08T01:25:10.005Z,100350.74
2023-02-08T01:27:39.653Z,100348.16
2023-02-08T01:30:10.458Z,100349.39
2023-02-08T01:32:40.474Z,100348.66
2023-02-08T01:35:09.798Z,100347.53
2023-02-08T01:37:38.600Z,100344.73
2023-02-08T01:40:08.237Z,100346.73
2023-02-08T01:42:37.392Z,100345.50
2023-02-08T01:45:23.515Z,100348.02
2023-02-08T01:48:35.390Z,100348.75
2023-02-08T01:51:19.542Z,100351.77
2023-02-08T01:53:53.282Z,100350.28
2023-02-08T01:56:30.128Z,100353.23
2023-02-08T01:59:02.412Z,100354.27
2023-02-08T02:01:32.356Z,100357.35
2023-02-08T02:04:05.469Z,100350.13
2023-02-08T02:06:38.849Z,100348.04
2023-02-08T02:09:32.224Z,100344.27
2023-02-08T02:12:02.611Z,100338.50
2023-02-08T02:14:31.452Z,100337.58
2023-02-08T02:17:01.641Z,100334.27
2023-02-08T02:20:07.381Z,100333.38
2023-02-08T02:22:55.563Z,100335.08
2023-02-08T02:25:41.047Z,100333.05
2023-02-08T02:28:32.110Z,100332.64
2023-02-08T02:31:38.302Z,100336.79
2023-02-08T02:34:18.971Z,100332.05
2023-02-08T02:36:53.904Z,100331.41
2023-02-08T02:39:38.573Z,100324.71
2023-02-08T02:42:32.027Z,100327.48
2023-02-08T02:45:04.433Z,100322.96
2023-02-08T02:47:40.785Z,100322.52
2023-02-08T02:50:44.032Z,100317.09
2023-02-08T02:53:25.459Z,100318.68
2023-02-08T02:56:01.487Z,100313.18
2023-02-08T02:58:33.610Z,100313.69
2023-02-08T03:01:03.174Z,100312.20
2023-02-08T03:03:34.597Z,100313.61
2023-02-08T03:06:11.673Z,100315.67
2023-02-08T03:09:26.209Z,100314.84
2023-02-08T03:12:04.775Z,100315.20
2023-02-08T03:14:57.051Z,100315.20
2023-02-08T03:17:35.713Z,100313.55
2023-02-08T03:20:09.955Z,100311.12
2023-02-08T03:23:07.876Z,100310.36
2023-02-08T03:25:46.174Z,100316.17
2023-02-08T03:28:23.185Z,100315.98
2023-02-08T03:31:08.727Z,100311.85
2023-02-08T03:33:51.919Z,100311.81
2023-02-08T03:36:48.903Z,100313.98
2023-02-08T03:39:24.020Z,100307.73
2023-02-08T03:41:57.611Z,100309.38
2023-02-08T03:44:34.579Z,100303.17
2023-02-08T03:47:18.704Z,100309.23
2023-02-08T03:49:52.839Z,100310.53
2023-02-08T03:52:23.726Z,100316.27
2023-02-08T03:54:58.313Z,100303.77
2023-02-08T03:57:32.157Z,100309.64
2023-02-08T04:00:12.635Z,100311.39
2023-02-08T04:02:52.544Z,100309.21
2023-02-08T04:05:22.715Z,100310.18
2023-02-08T04:07:52.589Z,100303.50
2023-02-08T04:10:21.791Z,100307.19
2023-02-08T04:12:50.942Z,100304.73
2023-02-08T04:15:19.984Z,100309.77
2023-02-08T04:17:48.668Z,100305.07
2023-02-08T04:20:17.607Z,100307.91
2023-02-08T04:22:46.408Z,100310.80
2023-02-08T04:25:15.538Z,100304.36
2023-02-08T04:27:44.641Z,100304.98
2023-02-08T04:30:14.414Z,100303.67
2023-02-08T04:32:43.212Z,100302.86
2023-02-08T04:35:12.030Z,100305.55
2023-02-08T04:37:40.863Z,100301.47
2023-02-08T04:40:10.715Z,100297.58
2023-02-08T04:42:39.561Z,100300.08
2023-02-08T04:45:09.237Z,100296.35
2023-02-08T04:47:38.001Z,100297.16
2023-02-08T04:50:07.511Z,100298.77
2023-02-08T04:52:36.331Z,100296.77
2023-02-08T04:55:05.757Z,100300.20
2023-02-08T04:57:35.321Z,100297.79
2023-02-08T05:00:04.552Z,100296.30
2023-02-08T05:02:33.371Z,100297.42
2023-02-08T05:05:02.140Z,100292.30
2023-02-08T05:07:31.397Z,100288.46
2023-02-08T05:10:00.252Z,100287.25
2023-02-08T05:12:29.196Z,100292.58
2023-02-08T05:14:58.148Z,100298.06
2023-02-08T05:17:27.093Z,100297.31
2023-02-08T05:19:56.120Z,100295.98
2023-02-08T05:22:24.823Z,100293.34
2023-02-08T05:24:53.846Z,100289.13
2023-02-08T05:27:22.738Z,100290.38
2023-02-08T05:29:51.882Z,100284.99
2023-02-08T05:32:21.145Z,100283.91
2023-02-08T05:34:50.485Z,100284.56
2023-02-08T05:37:19.232Z,100286.89
2023-02-08T05:39:47.925Z,100289.43
2023-02-08T05:42:17.327Z,100291.39
2023-02-08T05:44:46.297Z,100295.02
2023-02-08T05:47:15.549Z,100298.33
2023-02-08T05:49:44.675Z,100295.35
2023-02-08T05:52:13.790Z,100299.52
2023-02-08T05:54:42.807Z,100303.23
2023-02-08T05:57:11.815Z,100305.68
2023-02-08T05:59:41.220Z,100306.14
2023-02-08T06:02:10.319Z,100305.42
2023-02-08T06:04:39.405Z,100307.39
2023-02-08T06:07:08.436Z,100310.55
2023-02-08T06:09:37.451Z,100305.92
2023-02-08T06:12:07.712Z,100305.40
2023-02-08T06:14:36.973Z,100306.11
2023-02-08T06:17:06.342Z,100305.58
2023-02-08T06:19:35.232Z,100305.45
2023-02-08T06:22:04.369Z,100303.64
2023-02-08T06:24:33.256Z,100304.13
2023-02-08T06:27:02.155Z,100304.06
2023-02-08T06:29:30.997Z,100306.01
2023-02-08T06:31:59.712Z,100307.66
2023-02-08T06:34:28.472Z,100311.25
2023-02-08T06:36:57.675Z,100311.27
2023-02-08T06:39:26.729Z,100311.89
2023-02-08T06:41:55.515Z,100313.95
2023-02-08T06:44:25.267Z,100313.91
2023-02-08T06:46:54.482Z,100310.42
2023-02-08T06:49:23.487Z,100310.92
2023-02-08T06:51:52.352Z,100308.16
2023-02-08T06:54:21.120Z,100303.55
2023-02-08T06:56:49.929Z,100303.85
2023-02-08T06:59:19.492Z,100298.44
2023-02-08T07:01:48.780Z,100291.79
2023-02-08T07:04:17.795Z,100296.27
2023-02-08T07:06:50.257Z,100291.27
2023-02-08T07:09:19.213Z,100292.45
2023-02-08T07:11:47.995Z,100282.86
2023-02-08T07:14:17.354Z,100282.09
2023-02-08T07:16:47.200Z,100276.80
2023-02-08T07:19:16.861Z,100276.48
2023-02-08T07:21:45.929Z,100278.72
2023-02-08T07:24:15.089Z,100282.14
2023-02-08T07:26:44.036Z,100277.95
2023-02-08T07:29:13.267Z,100271.31
2023-02-08T07:31:42.239Z,100275.67
2023-02-08T07:34:10.951Z,100274.83
2023-02-08T07:36:39.928Z,100270.03
2023-02-08T07:39:08.821Z,100272.30
2023-02-08T07:41:37.614Z,100274.23
2023-02-08T07:44:07.006Z,100274.58
2023-02-08T07:46:35.995Z,100275.16
2023-02-08T07:49:05.207Z,100265.88
2023-02-08T07:51:33.912Z,100259.38
2023-02-08T07:54:02.956Z,100258.09
2023-02-08T07:56:31.775Z,100260.30
2023-02-08T07:59:00.466Z,100258.70
2023-02-08T08:01:29.642Z,100256.04
2023-02-08T08:03:58.793Z,100255.55
2023-02-08T08:06:29.361Z,100259.10
2023-02-08T08:08:58.779Z,100260.83
2023-02-08T08:11:27.760Z,100260.01
2023-02-08T08:13:57.105Z,100256.16
2023-02-08T08:16:26.442Z,100250.10
2023-02-08T08:18:55.630Z,100252.25
2023-02-08T08:21:25.487Z,100255.36
2023-02-08T08:23:56.014Z,100254.52
2023-02-08T08:26:25.429Z,100256.11
2023-02-08T08:28:55.053Z,100252.71
2023-02-08T08:31:24.364Z,100251.04
2023-02-08T08:33:54.002Z,100249.52
2023-02-08T08:36:23.238Z,100251.84
2023-02-08T08:38:52.547Z,100248.42
2023-02-08T08:41:25.070Z,100247.90
2023-02-08T08:43:57.303Z,100248.39
2023-02-08T08:46:26.350Z,100247.20
2023-02-08T08:48:55.909Z,100239.17
2023-02-08T08:51:24.547Z,100234.11
2023-02-08T08:53:53.249Z,100235.39
2023-02-08T08:56:22.104Z,100233.24
2023-02-08T08:58:50.811Z,100234.84
2023-02-08T09:01:19.524Z,100228.26
2023-02-08T09:03:48.624Z,100232.82
2023-02-08T09:06:17.827Z,100231.20
2023-02-08T09:08:46.752Z,100236.27
2023-02-08T09:11:17.363Z,100235.91
2023-02-08T09:13:46.409Z,100235.23
2023-02-08T09:16:17.547Z,100237.63
2023-02-08T09:18:46.953Z,100238.55
2023-02-08T09:21:21.902Z,100234.78
2023-02-08T09:23:51.577Z,100240.30
2023-02-08T09:26:22.847Z,100232.88
2023-02-08T09:28:52.283Z,100228.84
2023-02-08T09:31:23.928Z,100229.58
2023-02-08T09:33:56.369Z,100232.41
2023-02-08T09:36:27.807Z,100230.57
2023-02-08T09:39:01.208Z,100227.34
2023-02-08T09:41:48.969Z,100231.35
2023-02-08T09:44:43.663Z,100228.51
2023-02-08T09:47:36.992Z,100226.34
2023-02-08T09:50:12.620Z,100225.39
2023-02-08T09:52:44.760Z,100229.16
2023-02-08T09:55:20.467Z,100234.41
2023-02-08T09:57:54.868Z,100232.07
2023-02-08T10:00:52.280Z,100235.42
2023-02-08T10:03:29.175Z,100231.51
2023-02-08T10:05:59.450Z,100225.17
2023-02-08T10:08:35.264Z,100227.11
2023-02-08T10:11:16.473Z,100230.62
2023-02-08T10:14:42.454Z,100224.92
2023-02-08T10:17:51.576Z,100220.70
2023-02-08T10:20:28.212Z,100223.70
2023-02-08T10:23:22.618Z,100228.15
2023-02-08T10:26:10.725Z,100235.05
2023-02-08T10:29:08.083Z,100228.08
2023-02-08T10:31:55.818Z,100219.25
2023-02-08T10:34:47.454Z,100217.93
2023-02-08T10:37:20.842Z,100210.98
2023-02-08T10:39:51.414Z,100210.55
2023-02-08T10:42:23.639Z,100209.00
2023-02-08T10:45:18.886Z,100208.14
2023-02-08T10:48:02.636Z,100203.65
2023-02-08T10:50:37.252Z,100205.36
2023-02-08T10:53:07.788Z,100196.23
2023-02-08T10:55:44.186Z,100191.27
2023-02-08T10:58:23.246Z,100190.35
2023-02-08T11:00:55.345Z,100189.17
2023-02-08T11:03:28.636Z,100188.32
2023-02-08T11:05:58.842Z,100188.06
2023-02-08T11:08:29.311Z,100180.31
2023-02-08T11:11:04.978Z,100183.08
2023-02-08T11:13:38.835Z,100173.16
2023-02-08T11:16:20.791Z,100182.25
2023-02-08T11:18:54.601Z,100181.51
2023-02-08T11:21:30.017Z,100183.80
2023-02-08T11:24:01.538Z,100173.76
2023-02-08T11:26:41.172Z,100174.59
2023-02-08T11:29:21.548Z,100165.60
2023-02-08T11:31:58.015Z,100175.98
2023-02-08T11:34:35.126Z,100170.95
2023-02-08T11:37:16.129Z,100168.52
2023-02-08T11:39:55.049Z,100166.89
2023-02-08T11:42:44.645Z,100163.83
2023-02-08T11:45:23.992Z,100168.05
2023-02-08T11:47:54.989Z,100159.23
2023-02-08T11:50:30.575Z,100163.27
2023-02-08T11:53:02.869Z,100163.23
2023-02-08T11:55:34.849Z,100164.41
2023-02-08T11:58:24.610Z,100162.16
2023-02-08T12:01:08.142Z,100158.84
2023-02-08T12:03:40.522Z,100157.42
2023-02-08T12:06:34.145Z,100159.17
2023-02-08T12:09:25.112Z,100150.23
2023-02-08T12:12:34.214Z,100148.80
2023-02-08T12:15:17.652Z,100144.83
2023-02-08T12:18:22.458Z,100148.95
2023-02-08T12:21:07.215Z,100150.64
2023-02-08T12:23:44.828Z,100156.34
2023-02-08T12:26:19.741Z,100148.90
2023-02-08T12:29:11.397Z,100150.95
2023-02-08T12:31:57.068Z,100138.45
2023-02-08T12:34:29.339Z,100141.05
2023-02-08T12:37:22.718Z,100138.15
2023-02-08T12:40:13.454Z,100131.50
2023-02-08T12:43:04.462Z,100127.21
2023-02-08T12:45:52.562Z,100129.38
2023-02-08T12:48:52.845Z,100122.48
2023-02-08T12:51:35.942Z,100109.02
2023-02-08T12:54:32.386Z,100119.63
2023-02-08T12:57:03.873Z,100109.64
2023-02-08T12:59:42.453Z,100105.64
2023-02-08T13:02:31.555Z,100111.18
2023-02-08T13:05:07.571Z,100112.73
2023-02-08T13:07:43.584Z,100114.12
2023-02-08T13:10:35.656Z,100112.71
2023-02-08T13:13:16.721Z,100111.35
2023-02-08T13:16:09.968Z,100119.54
2023-02-08T13:18:46.799Z,100118.27
2023-02-08T13:21:21.443Z,100129.19
2023-02-08T13:23:53.082Z,100124.09
2023-02-08T13:26:29.313Z,100132.10
2023-02-08T13:29:02.028Z,100136.46
2023-02-08T13:31:39.591Z,100137.35
2023-02-08T13:34:18.571Z,100136.16
2023-02-08T13:37:08.946Z,100133.77
2023-02-08T13:39:47.264Z,100131.45
2023-02-08T13:42:28.283Z,100124.72
2023-02-08T13:44:59.610Z,100125.87
2023-02-08T13:47:33.109Z,100128.95
2023-02-08T13:50:24.235Z,100138.50
2023-02-08T13:52:54.414Z,100139.42
2023-02-08T13:55:29.488Z,100134.29
2023-02-08T13:58:04.597Z,100136.05
2023-02-08T14:00:37.470Z,100132.99
2023-02-08T14:03:34.857Z,100135.30
2023-02-08T14:06:18.308Z,100137.90
2023-02-08T14:08:48.161Z,100135.02
2023-02-08T14:11:43.323Z,100135.13
2023-02-08T14:14:24.870Z,100130.27
2023-02-08T14:17:27.257Z,100132.23
2023-02-08T14:20:05.035Z,100131.67
2023-02-08T14:22:49.807Z,100128.15
2023-02-08T14:25:23.295Z,100135.60
2023-02-08T14:27:58.315Z,100134.83
2023-02-08T14:30:33.458Z,100126.15
2023-02-08T14:33:10.299Z,100126.73
2023-02-08T14:35:43.912Z,100123.41
2023-02-08T14:38:20.446Z,100122.42
2023-02-08T14:40:59.081Z,100118.12
2023-02-08T14:43:40.944Z,100128.38
2023-02-08T14:46:45.669Z,100127.13
2023-02-08T14:49:18.094Z,100132.14
2023-02-08T14:51:57.696Z,100135.76
2023-02-08T14:54:42.451Z,100129.95
2023-02-08T14:57:37.014Z,100129.21
2023-02-08T15:00:22.487Z,100120.39
2023-02-08T15:02:53.620Z,100121.12
2023-02-08T15:05:29.820Z,100122.33
2023-02-08T15:08:02.249Z,100127.26
2023-02-08T15:10:35.539Z,100127.57
2023-02-08T15:13:08.657Z,100120.54
2023-02-08T15:15:45.447Z,100130.02
2023-02-08T15:18:24.795Z,100129.96
2023-02-08T15:21:18.776Z,100126.17
2023-02-08T15:24:05.511Z,100122.77
2023-02-08T15:26:35.838Z,100128.88
2023-02-08T15:29:24.644Z,100122.14
2023-02-08T15:31:58.191Z,100128.21
2023-02-08T15:34:27.549Z,100123.52
2023-02-08T15:36:57.620Z,100123.56
2023-02-08T15:39:40.214Z,100123.20
2023-02-08T15:42:23.589Z,100121.63
2023-02-08T15:44:53.834Z,100123.68
2023-02-08T15:47:32.993Z,100119.98
2023-02-08T15:50:09.640Z,100127.98
2023-02-08T15:52:38.692Z,100121.48
2023-02-08T15:55:10.870Z,100116.45
2023-02-08T15:57:48.194Z,100118.81
2023-02-08T16:00:26.987Z,100119.17
2023-02-08T16:03:18.998Z,100123.42
2023-02-08T16:05:57.797Z,100125.60
2023-02-08T16:08:31.386Z,100124.36
2023-02-08T16:11:16.281Z,100121.58
2023-02-08T16:13:52.305Z,100122.30
2023-02-08T16:16:27.731Z,100117.44
2023-02-08T16:19:32.091Z,100122.15
2023-02-08T16:22:13.832Z,100128.77
2023-02-08T16:24:43.603Z,100124.58
2023-02-08T16:27:25.193Z,100131.11
2023-02-08T16:29:55.671Z,100125.38
2023-02-08T16:32:40.044Z,100121.54
2023-02-08T16:35:26.274Z,100128.80
2023-02-08T16:38:02.842Z,100129.70
2023-02-08T16:40:49.518Z,100141.87
2023-02-08T16:43:32.808Z,100147.34
2023-02-08T16:46:12.694Z,100143.58
2023-02-08T16:48:49.719Z,100141.57
2023-02-08T16:51:27.862Z,100145.67
2023-02-08T16:54:03.192Z,100145.40
2023-02-08T16:56:36.355Z,100149.73
2023-02-08T16:59:06.752Z,100155.90
2023-02-08T17:01:38.804Z,100163.99
2023-02-08T17:04:08.271Z,100160.95
2023-02-08T17:06:39.299Z,100167.46
2023-02-08T17:09:13.093Z,100167.35
2023-02-08T17:11:42.315Z,100175.28
2023-02-08T17:14:11.888Z,100174.84
2023-02-08T17:16:41.822Z,100179.86
2023-02-08T17:19:17.833Z,100182.38
2023-02-08T17:21:47.087Z,100187.56
2023-02-08T17:24:18.282Z,100189.73
2023-02-08T17:26:48.043Z,100188.95
2023-02-08T17:29:18.525Z,100191.95
2023-02-08T17:31:49.019Z,100194.80
2023-02-08T17:34:19.298Z,100193.77
2023-02-08T17:36:49.386Z,100199.38
2023-02-08T17:39:19.717Z,100195.45
2023-02-08T17:41:49.261Z,100199.77
2023-02-08T17:44:19.594Z,100204.98
2023-02-08T17:46:49.480Z,100200.43
2023-02-08T17:49:18.932Z,100204.16
2023-02-08T17:51:48.178Z,100208.98
2023-02-08T17:54:17.419Z,100210.84
2023-02-08T17:56:46.331Z,100209.36
2023-02-08T17:59:15.463Z,100215.91
2023-02-08T18:01:46.247Z,100219.75
2023-02-08T18:04:15.887Z,100218.48
2023-02-08T18:06:45.028Z,100205.55
2023-02-08T18:09:14.685Z,100220.48
2023-02-08T18:11:45.166Z,100227.02
2023-02-08T18:14:14.896Z,100231.00
2023-02-08T18:16:43.905Z,100231.05
2023-02-08T18:19:13.113Z,100234.41
2023-02-08T18:21:43.812Z,100243.14
2023-02-08T18:24:13.251Z,100244.73
2023-02-08T18:26:43.779Z,100245.67
2023-02-08T18:29:13.779Z,100246.83
2023-02-08T18:31:43.567Z,100250.38
2023-02-08T18:34:13.712Z,100257.26
2023-02-08T18:36:44.081Z,100249.40
2023-02-08T18:39:23.650Z,100262.38
2023-02-08T18:41:53.854Z,100260.70
2023-02-08T18:44:24.271Z,100264.98
2023-02-08T18:46:53.506Z,100265.13
2023-02-08T18:49:22.828Z,100268.33
2023-02-08T18:51:52.914Z,100266.23
2023-02-08T18:54:23.814Z,100271.83
2023-02-08T18:56:57.318Z,100272.40
2023-02-08T18:59:26.701Z,100278.03
2023-02-08T19:01:56.449Z,100278.16
2023-02-08T19:04:26.574Z,100277.65
2023-02-08T19:06:56.265Z,100273.03
2023-02-08T19:09:26.384Z,100277.20
2023-02-08T19:11:56.947Z,100278.44
2023-02-08T19:14:26.896Z,100280.48
2023-02-08T19:16:56.698Z,100276.41
2023-02-08T19:19:28.008Z,100280.01
2023-02-08T19:21:57.570Z,100277.70
2023-02-08T19:24:26.651Z,100280.96
2023-02-08T19:26:56.335Z,100281.48
2023-02-08T19:29:26.205Z,100278.96
2023-02-08T19:31:58.146Z,100282.86
2023-02-08T19:34:28.940Z,100282.21
2023-02-08T19:36:58.549Z,100279.14
2023-02-08T19:39:28.998Z,100283.32
2023-02-08T19:42:00.565Z,100285.35
2023-02-08T19:44:31.286Z,100285.17
2023-02-08T19:47:02.100Z,100278.92
2023-02-08T19:49:31.813Z,100280.48
2023-02-08T19:52:01.363Z,100284.08
2023-02-08T19:54:30.902Z,100285.11
2023-02-08T19:57:01.008Z,100285.83
2023-02-08T19:59:35.520Z,100285.52
2023-02-08T20:02:07.066Z,100288.36
2023-02-08T20:04:36.299Z,100293.08
2023-02-08T20:07:06.720Z,100294.41
2023-02-08T20:09:36.278Z,100297.27
2023-02-08T20:12:06.945Z,100300.33
2023-02-08T20:14:36.815Z,100299.45
2023-02-08T20:17:06.221Z,100299.48
2023-02-08T20:19:39.266Z,100297.75
2023-02-08T20:22:08.707Z,100297.94
2023-02-08T20:24:38.461Z,100299.09
2023-02-08T20:27:09.992Z,100300.94
2023-02-08T20:29:40.934Z,100294.86
2023-02-08T20:32:10.403Z,100289.55
2023-02-08T20:34:47.319Z,100289.64
2023-02-08T20:37:24.030Z,100289.30
2023-02-08T20:39:54.779Z,100288.96
2023-02-08T20:42:24.211Z,100291.91
2023-02-08T20:44:54.133Z,100288.45
2023-02-08T20:47:23.930Z,100289.75
2023-02-08T20:49:53.354Z,100286.52
2023-02-08T20:52:23.943Z,100289.61
2023-02-08T20:54:53.587Z,100286.21
2023-02-08T20:57:22.977Z,100287.55
2023-02-08T20:59:53.608Z,100289.83
2023-02-08T21:02:24.586Z,100290.52
2023-02-08T21:04:54.141Z,100290.87
2023-02-08T21:07:24.195Z,100289.34
2023-02-08T21:09:53.689Z,100292.57
2023-02-08T21:12:23.136Z,100286.23
2023-02-08T21:14:52.818Z,100282.29
2023-02-08T21:17:22.082Z,100283.23
2023-02-08T21:19:51.261Z,100287.80
2023-02-08T21:22:21.094Z,100285.65
2023-02-08T21:24:50.454Z,100285.85
2023-02-08T21:27:19.838Z,100284.02
2023-02-08T21:29:52.261Z,100275.48
2023-02-08T21:32:21.598Z,100276.30
2023-02-08T21:34:51.424Z,100275.24
2023-02-08T21:37:20.854Z,100280.20
2023-02-08T21:39:50.854Z,100278.02
2023-02-08T21:42:20.357Z,100277.61
2023-02-08T21:44:51.756Z,100278.64
2023-02-08T21:47:22.131Z,100279.08
2023-02-08T21:50:11.155Z,100277.79
2023-02-08T21:53:00.016Z,100271.25
2023-02-08T21:55:30.028Z,100279.03
2023-02-08T21:58:00.409Z,100280.09
2023-02-08T22:00:32.195Z,100281.02
2023-02-08T22:03:02.433Z,100279.44
2023-02-08T22:05:51.312Z,100279.83
2023-02-08T22:08:20.911Z,100277.21
2023-02-08T22:10:58.359Z,100279.20
2023-02-08T22:13:28.569Z,100279.78
2023-02-08T22:15:59.442Z,100279.32
2023-02-08T22:18:29.472Z,100279.16
2023-02-08T22:20:59.263Z,100276.08
2023-02-08T22:23:29.768Z,100280.26
2023-02-08T22:25:59.110Z,100279.42
2023-02-08T22:28:29.198Z,100279.02
2023-02-08T22:30:58.925Z,100276.54
2023-02-08T22:33:31.717Z,100274.37
2023-02-08T22:36:01.652Z,100272.30
2023-02-08T22:38:31.860Z,100274.87
2023-02-08T22:41:01.081Z,100273.95
2023-02-08T22:43:30.380Z,100272.63
2023-02-08T22:46:00.744Z,100273.57
2023-02-08T22:48:30.763Z,100270.20
2023-02-08T22:51:00.963Z,100273.95
2023-02-08T22:53:30.805Z,100270.30
2023-02-08T22:56:00.324Z,100274.92
2023-02-08T22:58:30.182Z,100268.80
2023-02-08T23:00:59.697Z,100273.59
2023-02-08T23:03:30.050Z,100274.50
2023-02-08T23:05:59.100Z,100273.45
2023-02-08T23:08:28.193Z,100273.39
2023-02-08T23:11:02.308Z,100274.98
2023-02-08T23:13:32.656Z,100271.71
2023-02-08T23:16:01.764Z,100269.52
2023-02-08T23:18:31.077Z,100266.35
2023-02-08T23:21:06.806Z,100267.50
2023-02-08T23:23:36.667Z,100263.22
2023-02-08T23:26:10.823Z,100262.89
2023-02-08T23:28:40.147Z,100262.81
2023-02-08T23:31:11.788Z,100259.36
2023-02-08T23:33:40.987Z,100261.47
2023-02-08T23:36:13.459Z,100261.08
2023-02-08T23:38:43.606Z,100261.49
2023-02-08T23:41:20.738Z,100259.06
2023-02-08T23:43:51.700Z,100253.89
2023-02-08T23:46:27.028Z,100258.08
2023-02-08T23:48:56.580Z,100256.65
2023-02-08T23:51:27.014Z,100254.48
2023-02-08T23:53:56.310Z,100254.15
2023-02-08T23:56:29.940Z,100251.56
2023-02-08T23:59:00.111Z,100243.09
